sensor_id;sensor_type;location;lat;lon;timestamp;pressure;altitude;pressure_sealevel;temperature;humidity
35704;BME280;21820;51.112;13.762;2022-08-14T00:00:12;99313.31;;;26.02;59.40
35704;BME280;21820;51.112;13.762;2022-08-14T00:02:39;99311.69;;;26.01;57.83
35704;BME280;21820;51.112;13.762;2022-08-14T00:05:07;99313.50;;;25.70;54.18
35704;BME280;21820;51.112;13.762;2022-08-14T00:07:33;99299.59;;;25.53;53.43
35704;BME280;21820;51.112;13.762;2022-08-14T00:10:03;99307.03;;;25.73;56.74
35704;BME280;21820;51.112;13.762;2022-08-14T00:12:31;99296.34;;;25.74;57.28
35704;BME280;21820;51.112;13.762;2022-08-14T00:14:57;99289.38;;;25.81;57.75
35704;BME280;21820;51.112;13.762;2022-08-14T00:17:22;99303.44;;;25.96;57.29
35704;BME280;21820;51.112;13.762;2022-08-14T00:19:48;99305.91;;;25.98;57.57
35704;BME280;21820;51.112;13.762;2022-08-14T00:22:14;99302.28;;;25.99;57.56
35704;BME280;21820;51.112;13.762;2022-08-14T00:24:43;99297.19;;;25.97;57.50
35704;BME280;21820;51.112;13.762;2022-08-14T00:27:09;99301.44;;;25.98;58.12
35704;BME280;21820;51.112;13.762;2022-08-14T00:29:35;99289.94;;;25.99;58.59
35704;BME280;21820;51.112;13.762;2022-08-14T00:32:00;99291.56;;;26.00;58.10
35704;BME280;21820;51.112;13.762;2022-08-14T00:34:26;99277.47;;;25.93;58.11
35704;BME280;21820;51.112;13.762;2022-08-14T00:36:51;99290.59;;;26.01;59.13
35704;BME280;21820;51.112;13.762;2022-08-14T00:39:16;99286.13;;;26.02;59.15
35704;BME280;21820;51.112;13.762;2022-08-14T00:41:42;99281.00;;;26.00;58.35
35704;BME280;21820;51.112;13.762;2022-08-14T00:44:08;99279.22;;;26.01;58.28
35704;BME280;21820;51.112;13.762;2022-08-14T00:46:35;99288.91;;;26.00;58.75
35704;BME280;21820;51.112;13.762;2022-08-14T00:49:01;99280.22;;;26.00;58.42
35704;BME280;21820;51.112;13.762;2022-08-14T00:51:27;99281.69;;;26.02;58.88
35704;BME280;21820;51.112;13.762;2022-08-14T00:53:57;99276.94;;;25.67;54.08
35704;BME280;21820;51.112;13.762;2022-08-14T00:56:23;99278.00;;;25.58;53.72
35704;BME280;21820;51.112;13.762;2022-08-14T00:58:49;99280.84;;;25.79;57.52
35704;BME280;21820;51.112;13.762;2022-08-14T01:01:14;99276.53;;;25.86;57.72
35704;BME280;21820;51.112;13.762;2022-08-14T01:03:43;99281.06;;;25.92;57.85
35704;BME280;21820;51.112;13.762;2022-08-14T01:06:10;99289.28;;;25.97;57.55
35704;BME280;21820;51.112;13.762;2022-08-14T01:08:37;99285.63;;;25.98;58.37
35704;BME280;21820;51.112;13.762;2022-08-14T01:11:04;99288.44;;;26.05;60.17
35704;BME280;21820;51.112;13.762;2022-08-14T01:13:36;99286.97;;;26.02;59.46
35704;BME280;21820;51.112;13.762;2022-08-14T01:16:05;99284.66;;;25.99;57.93
35704;BME280;21820;51.112;13.762;2022-08-14T01:18:31;99288.91;;;26.00;58.58
35704;BME280;21820;51.112;13.762;2022-08-14T01:21:24;99283.66;;;26.00;59.51
35704;BME280;21820;51.112;13.762;2022-08-14T01:23:51;99281.38;;;25.97;58.57
35704;BME280;21820;51.112;13.762;2022-08-14T01:26:20;99288.91;;;26.00;58.51
35704;BME280;21820;51.112;13.762;2022-08-14T01:28:49;99279.22;;;26.01;58.52
35704;BME280;21820;51.112;13.762;2022-08-14T01:31:18;99273.81;;;25.94;59.35
35704;BME280;21820;51.112;13.762;2022-08-14T01:33:46;99275.75;;;26.00;59.48
35704;BME280;21820;51.112;13.762;2022-08-14T01:36:13;99274.81;;;26.01;58.78
35704;BME280;21820;51.112;13.762;2022-08-14T01:38:42;99279.38;;;25.99;58.69
35704;BME280;21820;51.112;13.762;2022-08-14T01:41:10;99278.06;;;26.03;57.49
35704;BME280;21820;51.112;13.762;2022-08-14T01:43:44;99279.63;;;25.59;53.95
35704;BME280;21820;51.112;13.762;2022-08-14T01:46:10;99275.31;;;25.66;55.41
35704;BME280;21820;51.112;13.762;2022-08-14T01:48:37;99271.13;;;25.80;57.50
35704;BME280;21820;51.112;13.762;2022-08-14T01:51:06;99270.06;;;25.89;58.73
35704;BME280;21820;51.112;13.762;2022-08-14T01:53:31;99273.81;;;25.94;57.58
35704;BME280;21820;51.112;13.762;2022-08-14T01:56:01;99276.28;;;25.96;58.90
35704;BME280;21820;51.112;13.762;2022-08-14T01:58:27;99272.63;;;25.97;58.01
35704;BME280;21820;51.112;13.762;2022-08-14T02:00:54;99279.38;;;25.99;57.88
35704;BME280;21820;51.112;13.762;2022-08-14T02:03:30;99277.44;;;26.01;58.14
35704;BME280;21820;51.112;13.762;2022-08-14T02:06:00;99273.13;;;26.00;58.53
35704;BME280;21820;51.112;13.762;2022-08-14T02:08:27;99266.22;;;25.99;57.41
35704;BME280;21820;51.112;13.762;2022-08-14T02:10:58;99270.47;;;26.00;58.29
35704;BME280;21820;51.112;13.762;2022-08-14T02:13:54;99267.84;;;26.00;58.82
35704;BME280;21820;51.112;13.762;2022-08-14T02:16:22;99267.84;;;26.00;58.65
35704;BME280;21820;51.112;13.762;2022-08-14T02:18:51;99262.56;;;26.00;57.95
35704;BME280;21820;51.112;13.762;2022-08-14T02:21:17;99265.06;;;26.02;57.39
35704;BME280;21820;51.112;13.762;2022-08-14T02:23:44;99253.91;;;25.92;58.38
35704;BME280;21820;51.112;13.762;2022-08-14T02:26:15;99267.84;;;26.00;59.58
35704;BME280;21820;51.112;13.762;2022-08-14T02:28:41;99267.84;;;26.00;58.17
35704;BME280;21820;51.112;13.762;2022-08-14T02:31:07;99265.50;;;25.60;53.78
35704;BME280;21820;51.112;13.762;2022-08-14T02:33:34;99262.16;;;25.66;54.95
35704;BME280;21820;51.112;13.762;2022-08-14T02:35:59;99256.41;;;25.85;59.53
35704;BME280;21820;51.112;13.762;2022-08-14T02:38:25;99257.53;;;25.91;57.66
35704;BME280;21820;51.112;13.762;2022-08-14T02:40:50;99255.22;;;25.96;57.83
35704;BME280;21820;51.112;13.762;2022-08-14T02:43:16;99249.59;;;25.99;58.01
35704;BME280;21820;51.112;13.762;2022-08-14T02:45:41;99249.59;;;25.99;58.48
35704;BME280;21820;51.112;13.762;2022-08-14T02:48:07;99243.47;;;25.98;57.22
35704;BME280;21820;51.112;13.762;2022-08-14T02:50:34;99230.38;;;25.90;57.72
35704;BME280;21820;51.112;13.762;2022-08-14T02:53:01;99247.78;;;25.99;57.90
35704;BME280;21820;51.112;13.762;2022-08-14T02:55:27;99241.50;;;26.00;58.27
35704;BME280;21820;51.112;13.762;2022-08-14T02:57:55;99238.06;;;26.00;58.93
35704;BME280;21820;51.112;13.762;2022-08-14T03:00:21;99240.56;;;26.01;58.76
35704;BME280;21820;51.112;13.762;2022-08-14T03:02:47;99240.69;;;26.00;58.74
35704;BME280;21820;51.112;13.762;2022-08-14T03:05:15;99241.50;;;26.00;59.00
35704;BME280;21820;51.112;13.762;2022-08-14T03:07:42;99237.06;;;26.01;58.58
35704;BME280;21820;51.112;13.762;2022-08-14T03:10:08;99241.50;;;26.00;58.20
35704;BME280;21820;51.112;13.762;2022-08-14T03:12:34;99236.22;;;26.00;58.35
35704;BME280;21820;51.112;13.762;2022-08-14T03:15:01;99244.13;;;26.00;58.08
35704;BME280;21820;51.112;13.762;2022-08-14T03:17:39;99239.94;;;25.91;56.39
35704;BME280;21820;51.112;13.762;2022-08-14T03:20:05;99245.41;;;25.59;54.03
35704;BME280;21820;51.112;13.762;2022-08-14T03:22:31;99245.72;;;25.64;54.93
35704;BME280;21820;51.112;13.762;2022-08-14T03:24:58;99250.84;;;25.80;57.94
35704;BME280;21820;51.112;13.762;2022-08-14T03:27:26;99246.19;;;25.90;58.09
35704;BME280;21820;51.112;13.762;2022-08-14T03:29:55;99242.22;;;25.94;57.41
35704;BME280;21820;51.112;13.762;2022-08-14T03:32:21;99245.50;;;25.96;58.56
35704;BME280;21820;51.112;13.762;2022-08-14T03:34:46;99243.47;;;25.98;58.11
35704;BME280;21820;51.112;13.762;2022-08-14T03:37:12;99238.88;;;26.00;57.62
35704;BME280;21820;51.112;13.762;2022-08-14T03:39:37;99232.94;;;25.98;57.75
35704;BME280;21820;51.112;13.762;2022-08-14T03:42:03;99237.22;;;25.99;57.05
35704;BME280;21820;51.112;13.762;2022-08-14T03:44:29;99233.59;;;26.00;58.02
35704;BME280;21820;51.112;13.762;2022-08-14T03:46:56;99228.31;;;26.00;57.25
35704;BME280;21820;51.112;13.762;2022-08-14T03:49:23;99228.31;;;26.00;58.58
35704;BME280;21820;51.112;13.762;2022-08-14T03:51:48;99240.84;;;26.06;59.67
35704;BME280;21820;51.112;13.762;2022-08-14T03:54:13;99232.66;;;26.01;58.42
35704;BME280;21820;51.112;13.762;2022-08-14T03:56:40;99233.59;;;26.00;58.13
35704;BME280;21820;51.112;13.762;2022-08-14T03:59:09;99230.16;;;26.00;57.95
35704;BME280;21820;51.112;13.762;2022-08-14T04:01:38;99228.31;;;26.00;57.63
35704;BME280;21820;51.112;13.762;2022-08-14T04:04:04;99225.69;;;26.00;58.38
35704;BME280;21820;51.112;13.762;2022-08-14T04:06:35;99226.91;;;25.67;54.32
35704;BME280;21820;51.112;13.762;2022-08-14T04:09:02;99220.44;;;25.55;53.23
35704;BME280;21820;51.112;13.762;2022-08-14T04:11:27;99224.41;;;25.73;56.58
35704;BME280;21820;51.112;13.762;2022-08-14T04:13:54;99229.28;;;25.85;57.49
35704;BME280;21820;51.112;13.762;2022-08-14T04:16:20;99216.13;;;25.85;57.86
35704;BME280;21820;51.112;13.762;2022-08-14T04:18:53;99229.88;;;25.95;59.38
35704;BME280;21820;51.112;13.762;2022-08-14T04:21:20;99231.31;;;25.97;57.86
35704;BME280;21820;51.112;13.762;2022-08-14T04:23:50;99226.88;;;25.98;57.89
35704;BME280;21820;51.112;13.762;2022-08-14T04:26:17;99228.69;;;25.97;57.23
35704;BME280;21820;51.112;13.762;2022-08-14T04:28:47;99222.41;;;25.98;57.88
35704;BME280;21820;51.112;13.762;2022-08-14T04:31:14;99222.41;;;25.98;58.51
35704;BME280;21820;51.112;13.762;2022-08-14T04:33:41;99221.59;;;25.98;58.76
35704;BME280;21820;51.112;13.762;2022-08-14T04:36:06;99224.06;;;25.99;58.09
35704;BME280;21820;51.112;13.762;2022-08-14T04:38:32;99218.78;;;25.99;58.17
35704;BME280;21820;51.112;13.762;2022-08-14T04:41:16;99220.41;;;26.00;58.41
35704;BME280;21820;51.112;13.762;2022-08-14T04:44:00;99217.78;;;26.00;57.97
35704;BME280;21820;51.112;13.762;2022-08-14T04:46:26;99209.88;;;26.00;57.97
35704;BME280;21820;51.112;13.762;2022-08-14T04:48:52;99210.72;;;26.01;58.86
35704;BME280;21820;51.112;13.762;2022-08-14T04:51:20;99209.88;;;26.00;58.98
35704;BME280;21820;51.112;13.762;2022-08-14T04:53:47;99209.09;;;26.00;57.53
35704;BME280;21820;51.112;13.762;2022-08-14T04:56:18;99203.63;;;25.56;54.08
35704;BME280;21820;51.112;13.762;2022-08-14T04:58:47;99200.66;;;25.59;54.91
35704;BME280;21820;51.112;13.762;2022-08-14T05:01:13;99203.44;;;25.80;57.58
35704;BME280;21820;51.112;13.762;2022-08-14T05:03:39;99190.25;;;25.88;58.30
35704;BME280;21820;51.112;13.762;2022-08-14T05:06:07;99188.59;;;25.87;58.33
35704;BME280;21820;51.112;13.762;2022-08-14T05:08:32;99199.25;;;25.94;56.90
35704;BME280;21820;51.112;13.762;2022-08-14T05:11:00;99201.34;;;25.98;58.92
35704;BME280;21820;51.112;13.762;2022-08-14T05:13:28;99201.34;;;25.98;57.58
35704;BME280;21820;51.112;13.762;2022-08-14T05:15:59;99209.09;;;26.00;59.11
35704;BME280;21820;51.112;13.762;2022-08-14T05:18:31;99201.34;;;25.98;58.59
35704;BME280;21820;51.112;13.762;2022-08-14T05:20:58;99199.34;;;26.00;57.68
35704;BME280;21820;51.112;13.762;2022-08-14T05:23:27;99199.34;;;26.00;57.98
35704;BME280;21820;51.112;13.762;2022-08-14T05:25:54;99192.44;;;25.99;57.75
35704;BME280;21820;51.112;13.762;2022-08-14T05:28:25;99193.44;;;25.98;58.49
35704;BME280;21820;51.112;13.762;2022-08-14T05:30:56;99191.81;;;25.97;58.57
35704;BME280;21820;51.112;13.762;2022-08-14T05:33:23;99177.69;;;25.90;58.99
35704;BME280;21820;51.112;13.762;2022-08-14T05:35:51;99191.63;;;25.99;58.56
35704;BME280;21820;51.112;13.762;2022-08-14T05:38:19;99190.78;;;25.98;58.77
35704;BME280;21820;51.112;13.762;2022-08-14T05:40:47;99197.72;;;25.99;58.59
35704;BME280;21820;51.112;13.762;2022-08-14T05:43:14;99194.56;;;25.58;54.59
35704;BME280;21820;51.112;13.762;2022-08-14T05:45:40;99189.81;;;25.54;53.84
35704;BME280;21820;51.112;13.762;2022-08-14T05:48:07;99187.34;;;25.75;57.11
35704;BME280;21820;51.112;13.762;2022-08-14T05:50:37;99194.22;;;25.84;57.39
35704;BME280;21820;51.112;13.762;2022-08-14T05:53:02;99183.78;;;25.91;57.76
35704;BME280;21820;51.112;13.762;2022-08-14T05:55:27;99184.91;;;25.96;57.84
35704;BME280;21820;51.112;13.762;2022-08-14T05:58:00;99169.97;;;25.89;58.24
35704;BME280;21820;51.112;13.762;2022-08-14T06:00:32;99176.19;;;25.96;59.18
35704;BME280;21820;51.112;13.762;2022-08-14T06:02:59;99183.91;;;25.97;57.98
35704;BME280;21820;51.112;13.762;2022-08-14T06:05:25;99186.53;;;25.97;58.13
35704;BME280;21820;51.112;13.762;2022-08-14T06:07:51;99180.25;;;25.98;58.53
35704;BME280;21820;51.112;13.762;2022-08-14T06:10:16;99178.63;;;25.97;58.29
35704;BME280;21820;51.112;13.762;2022-08-14T06:12:42;99182.88;;;25.98;57.95
35704;BME280;21820;51.112;13.762;2022-08-14T06:15:08;99177.63;;;25.98;58.87
35704;BME280;21820;51.112;13.762;2022-08-14T06:17:47;99164.63;;;25.97;60.06
35704;BME280;21820;51.112;13.762;2022-08-14T06:20:13;99164.31;;;26.00;58.32
35704;BME280;21820;51.112;13.762;2022-08-14T06:22:40;99160.66;;;26.01;58.34
35704;BME280;21820;51.112;13.762;2022-08-14T06:25:07;99160.84;;;25.99;58.59
35704;BME280;21820;51.112;13.762;2022-08-14T06:27:42;99152.41;;;26.04;60.70
35704;BME280;21820;51.112;13.762;2022-08-14T06:30:11;99159.81;;;25.63;53.84
35704;BME280;21820;51.112;13.762;2022-08-14T06:32:37;99160.50;;;25.57;53.74
35704;BME280;21820;51.112;13.762;2022-08-14T06:35:05;99160.06;;;25.76;57.37
35704;BME280;21820;51.112;13.762;2022-08-14T06:40:06;99153.00;;;25.91;58.28
35704;BME280;21820;51.112;13.762;2022-08-14T06:42:32;99144.75;;;25.94;58.63
35704;BME280;21820;51.112;13.762;2022-08-14T06:44:58;99144.56;;;25.96;57.11
35704;BME280;21820;51.112;13.762;2022-08-14T06:47:25;99151.47;;;25.97;58.29
35704;BME280;21820;51.112;13.762;2022-08-14T06:49:50;99147.66;;;25.99;58.59
35704;BME280;21820;51.112;13.762;2022-08-14T06:52:15;99143.22;;;26.00;57.52
35704;BME280;21820;51.112;13.762;2022-08-14T06:54:41;99135.47;;;25.98;57.76
35704;BME280;21820;51.112;13.762;2022-08-14T06:57:07;99141.38;;;26.00;58.26
35704;BME280;21820;51.112;13.762;2022-08-14T06:59:32;99132.84;;;25.98;58.43
35704;BME280;21820;51.112;13.762;2022-08-14T07:01:57;99127.56;;;25.98;58.68
35704;BME280;21820;51.112;13.762;2022-08-14T07:04:41;99127.56;;;25.98;57.66
35704;BME280;21820;51.112;13.762;2022-08-14T07:07:34;99112.84;;;25.89;60.08
35704;BME280;21820;51.112;13.762;2022-08-14T07:10:00;99131.22;;;25.97;58.45
35704;BME280;21820;51.112;13.762;2022-08-14T07:12:25;99122.31;;;25.98;57.99
35704;BME280;21820;51.112;13.762;2022-08-14T07:14:50;99123.13;;;25.99;58.21
35704;BME280;21820;51.112;13.762;2022-08-14T07:17:16;99125.59;;;26.00;57.65
35704;BME280;21820;51.112;13.762;2022-08-14T07:19:41;99120.41;;;25.55;53.72
35704;BME280;21820;51.112;13.762;2022-08-14T07:22:06;99116.69;;;25.64;55.08
35704;BME280;21820;51.112;13.762;2022-08-14T07:24:32;99115.94;;;25.78;57.75
35704;BME280;21820;51.112;13.762;2022-08-14T07:26:57;99120.09;;;25.87;57.70
35704;BME280;21820;51.112;13.762;2022-08-14T07:29:22;99117.75;;;25.92;58.05
35704;BME280;21820;51.112;13.762;2022-08-14T07:31:48;99114.16;;;25.93;57.67
35704;BME280;21820;51.112;13.762;2022-08-14T07:34:13;99110.97;;;25.98;58.18
35704;BME280;21820;51.112;13.762;2022-08-14T07:36:39;99110.97;;;25.98;57.44
35704;BME280;21820;51.112;13.762;2022-08-14T07:39:04;99105.69;;;25.98;58.44
35704;BME280;21820;51.112;13.762;2022-08-14T07:41:29;99108.16;;;25.99;57.85
35704;BME280;21820;51.112;13.762;2022-08-14T07:43:55;99108.16;;;25.99;58.09
35704;BME280;21820;51.112;13.762;2022-08-14T07:46:20;99084.88;;;25.88;57.51
35704;BME280;21820;51.112;13.762;2022-08-14T07:48:46;99110.97;;;25.98;58.37
35704;BME280;21820;51.112;13.762;2022-08-14T07:51:12;99103.25;;;25.96;58.79
35704;BME280;21820;51.112;13.762;2022-08-14T07:53:38;99093.31;;;25.98;58.16
35704;BME280;21820;51.112;13.762;2022-08-14T07:56:04;99082.00;;;25.98;60.20
35704;BME280;21820;51.112;13.762;2022-08-14T07:58:29;99094.97;;;25.99;58.85
35704;BME280;21820;51.112;13.762;2022-08-14T08:00:56;99089.72;;;25.99;59.13
35704;BME280;21820;51.112;13.762;2022-08-14T08:03:23;99087.06;;;25.99;59.24
35704;BME280;21820;51.112;13.762;2022-08-14T08:05:51;99083.75;;;25.68;54.88
35704;BME280;21820;51.112;13.762;2022-08-14T08:08:18;99085.16;;;25.56;53.21
35704;BME280;21820;51.112;13.762;2022-08-14T08:10:45;99089.03;;;25.68;55.80
35704;BME280;21820;51.112;13.762;2022-08-14T08:13:13;99083.13;;;25.81;58.10
35704;BME280;21820;51.112;13.762;2022-08-14T08:15:44;99077.97;;;25.87;58.89
35704;BME280;21820;51.112;13.762;2022-08-14T08:18:12;99082.88;;;25.90;57.82
35704;BME280;21820;51.112;13.762;2022-08-14T08:20:44;99074.63;;;25.93;59.56
35704;BME280;21820;51.112;13.762;2022-08-14T08:23:11;99082.53;;;25.93;57.17
35704;BME280;21820;51.112;13.762;2022-08-14T08:25:38;99076.06;;;25.96;58.78
35704;BME280;21820;51.112;13.762;2022-08-14T08:28:15;99081.34;;;25.96;58.71
35704;BME280;21820;51.112;13.762;2022-08-14T08:30:59;99078.53;;;25.97;59.81
35704;BME280;21820;51.112;13.762;2022-08-14T08:33:27;99079.34;;;25.98;58.60
35704;BME280;21820;51.112;13.762;2022-08-14T08:35:57;99076.91;;;25.96;58.75
35704;BME280;21820;51.112;13.762;2022-08-14T08:38:24;99071.63;;;25.96;58.74
35704;BME280;21820;51.112;13.762;2022-08-14T08:40:52;99073.63;;;25.94;58.36
35704;BME280;21820;51.112;13.762;2022-08-14T08:43:31;99071.00;;;25.94;58.97
35704;BME280;21820;51.112;13.762;2022-08-14T08:46:05;99068.00;;;25.97;60.48
35704;BME280;21820;51.112;13.762;2022-08-14T08:48:45;99063.09;;;25.94;60.38
35704;BME280;21820;51.112;13.762;2022-08-14T08:51:20;99062.72;;;25.97;59.85
35704;BME280;21820;51.112;13.762;2022-08-14T08:59:02;99052.53;;;25.65;55.74
35704;BME280;21820;51.112;13.762;2022-08-14T09:01:29;99053.72;;;25.77;57.53
35704;BME280;21820;51.112;13.762;2022-08-14T09:04:01;99037.91;;;25.77;59.03
35704;BME280;21820;51.112;13.762;2022-08-14T09:06:26;99053.91;;;25.90;57.56
35704;BME280;21820;51.112;13.762;2022-08-14T09:08:52;99045.66;;;25.93;58.12
35704;BME280;21820;51.112;13.762;2022-08-14T09:11:20;99041.19;;;25.94;57.45
35704;BME280;21820;51.112;13.762;2022-08-14T09:13:52;99036.75;;;25.94;59.09
35704;BME280;21820;51.112;13.762;2022-08-14T09:16:23;99035.13;;;25.93;57.55
35704;BME280;21820;51.112;13.762;2022-08-14T09:18:49;99041.00;;;25.95;57.95
35704;BME280;21820;51.112;13.762;2022-08-14T09:21:15;99044.66;;;25.94;57.54
35704;BME280;21820;51.112;13.762;2022-08-14T09:23:40;99032.31;;;25.95;58.77
35704;BME280;21820;51.112;13.762;2022-08-14T09:26:06;99040.81;;;25.97;58.81
35704;BME280;21820;51.112;13.762;2022-08-14T09:28:31;99033.94;;;25.96;58.37
35704;BME280;21820;51.112;13.762;2022-08-14T09:30:57;99026.84;;;25.96;58.62
35704;BME280;21820;51.112;13.762;2022-08-14T09:41:29;99020.56;;;25.97;59.93
35704;BME280;21820;51.112;13.762;2022-08-14T09:46:27;99008.47;;;25.59;54.82
35704;BME280;21820;51.112;13.762;2022-08-14T09:49:04;99001.41;;;25.74;58.91
35704;BME280;21820;51.112;13.762;2022-08-14T09:51:30;99009.13;;;25.90;59.65
35704;BME280;21820;51.112;13.762;2022-08-14T09:54:04;98992.53;;;25.90;59.00
35704;BME280;21820;51.112;13.762;2022-08-14T09:56:51;98990.16;;;25.95;59.50
35704;BME280;21820;51.112;13.762;2022-08-14T09:59:17;98985.06;;;25.93;57.97
35704;BME280;21820;51.112;13.762;2022-08-14T10:01:47;98992.97;;;25.93;57.88
35704;BME280;21820;51.112;13.762;2022-08-14T10:04:19;98983.41;;;25.92;59.50
35704;BME280;21820;51.112;13.762;2022-08-14T10:06:45;98979.81;;;25.93;58.16
35704;BME280;21820;51.112;13.762;2022-08-14T10:09:11;98971.19;;;25.85;58.49
35704;BME280;21820;51.112;13.762;2022-08-14T10:11:38;98972.69;;;25.94;58.10
35704;BME280;21820;51.112;13.762;2022-08-14T10:14:11;98970.16;;;26.00;60.02
35704;BME280;21820;51.112;13.762;2022-08-14T10:16:42;98970.72;;;25.96;58.70
35704;BME280;21820;51.112;13.762;2022-08-14T10:19:10;98970.91;;;25.94;59.45
35704;BME280;21820;51.112;13.762;2022-08-14T10:21:39;98962.16;;;25.94;58.55
35704;BME280;21820;51.112;13.762;2022-08-14T10:24:08;98960.34;;;25.94;58.25
35704;BME280;21820;51.112;13.762;2022-08-14T10:26:34;98955.09;;;25.94;59.21
35704;BME280;21820;51.112;13.762;2022-08-14T10:29:06;98947.84;;;25.96;60.23
35704;BME280;21820;51.112;13.762;2022-08-14T10:31:31;98949.63;;;25.52;53.77
35704;BME280;21820;51.112;13.762;2022-08-14T10:34:07;98930.41;;;25.51;55.54
35704;BME280;21820;51.112;13.762;2022-08-14T10:36:35;98934.94;;;25.72;58.05
35704;BME280;21820;51.112;13.762;2022-08-14T10:39:06;98936.50;;;25.81;59.17
35704;BME280;21820;51.112;13.762;2022-08-14T10:44:11;98936.19;;;25.91;59.71
35704;BME280;21820;51.112;13.762;2022-08-14T10:46:51;98927.47;;;25.90;59.32
35704;BME280;21820;51.112;13.762;2022-08-14T10:49:20;98924.50;;;25.93;57.77
35704;BME280;21820;51.112;13.762;2022-08-14T10:52:05;98919.22;;;25.93;59.94
35704;BME280;21820;51.112;13.762;2022-08-14T10:54:37;98909.66;;;25.92;58.78
35704;BME280;21820;51.112;13.762;2022-08-14T11:02:35;98911.31;;;25.93;60.03
35704;BME280;21820;51.112;13.762;2022-08-14T11:05:11;98910.31;;;25.94;58.71
35704;BME280;21820;51.112;13.762;2022-08-14T11:07:40;98910.31;;;25.94;57.87
35704;BME280;21820;51.112;13.762;2022-08-14T11:10:09;98902.41;;;25.94;57.91
35704;BME280;21820;51.112;13.762;2022-08-14T11:12:50;98903.44;;;25.93;60.11
35704;BME280;21820;51.112;13.762;2022-08-14T11:15:21;98902.78;;;25.91;59.48
35704;BME280;21820;51.112;13.762;2022-08-14T11:17:48;98905.22;;;25.93;58.66
35704;BME280;21820;51.112;13.762;2022-08-14T11:20:20;98890.38;;;25.56;54.56
35704;BME280;21820;51.112;13.762;2022-08-14T11:22:52;98897.06;;;25.58;54.85
35704;BME280;21820;51.112;13.762;2022-08-14T11:25:20;98886.28;;;25.68;57.56
35704;BME280;21820;51.112;13.762;2022-08-14T11:27:48;98899.63;;;25.81;57.13
35704;BME280;21820;51.112;13.762;2022-08-14T11:30:17;98893.59;;;25.87;58.34
35704;BME280;21820;51.112;13.762;2022-08-14T11:32:45;98894.25;;;25.89;57.69
35704;BME280;21820;51.112;13.762;2022-08-14T11:35:17;98890.59;;;25.90;58.59
35704;BME280;21820;51.112;13.762;2022-08-14T11:40:18;98901.78;;;25.92;58.12
35704;BME280;21820;51.112;13.762;2022-08-14T11:42:46;98903.44;;;25.93;59.06
35704;BME280;21820;51.112;13.762;2022-08-14T11:45:12;98903.44;;;25.93;59.24
35704;BME280;21820;51.112;13.762;2022-08-14T11:47:38;98886.91;;;25.85;58.91
35704;BME280;21820;51.112;13.762;2022-08-14T11:50:26;98899.13;;;25.92;60.19
35704;BME280;21820;51.112;13.762;2022-08-14T11:52:52;98896.50;;;25.92;58.94
35704;BME280;21820;51.112;13.762;2022-08-14T11:55:23;98898.16;;;25.93;59.28
35704;BME280;21820;51.112;13.762;2022-08-14T11:58:15;98891.88;;;25.94;60.64
35704;BME280;21820;51.112;13.762;2022-08-14T12:00:49;98887.63;;;25.93;59.58
35704;BME280;21820;51.112;13.762;2022-08-14T12:03:15;98888.41;;;25.94;58.32
35704;BME280;21820;51.112;13.762;2022-08-14T12:05:41;98890.25;;;25.93;58.21
35704;BME280;21820;51.112;13.762;2022-08-14T12:08:08;98881.19;;;25.52;54.66
35704;BME280;21820;51.112;13.762;2022-08-14T12:10:36;98895.34;;;25.51;54.16
35704;BME280;21820;51.112;13.762;2022-08-14T12:13:17;98894.63;;;25.72;58.65
35704;BME280;21820;51.112;13.762;2022-08-14T12:15:46;98896.34;;;25.79;57.10
35704;BME280;21820;51.112;13.762;2022-08-14T12:18:14;98891.97;;;25.86;57.55
35704;BME280;21820;51.112;13.762;2022-08-14T12:20:42;98885.34;;;25.90;57.73
35704;BME280;21820;51.112;13.762;2022-08-14T12:23:20;98868.00;;;25.81;59.33
35704;BME280;21820;51.112;13.762;2022-08-14T12:25:47;98880.88;;;25.91;57.72
35704;BME280;21820;51.112;13.762;2022-08-14T12:28:12;98881.53;;;25.93;58.21
35704;BME280;21820;51.112;13.762;2022-08-14T12:30:42;98877.44;;;25.90;57.79
35704;BME280;21820;51.112;13.762;2022-08-14T12:33:23;98876.25;;;25.93;60.41
35704;BME280;21820;51.112;13.762;2022-08-14T12:35:55;98869.34;;;25.92;58.55
35704;BME280;21820;51.112;13.762;2022-08-14T12:38:39;98872.81;;;25.92;60.22
35704;BME280;21820;51.112;13.762;2022-08-14T12:41:16;98865.91;;;25.91;58.68
35704;BME280;21820;51.112;13.762;2022-08-14T12:43:51;98865.28;;;25.89;59.30
35704;BME280;21820;51.112;13.762;2022-08-14T12:46:35;98856.34;;;25.90;59.88
35704;BME280;21820;51.112;13.762;2022-08-14T12:49:08;98859.63;;;25.92;59.74
35704;BME280;21820;51.112;13.762;2022-08-14T12:51:34;98860.47;;;25.93;58.68
35704;BME280;21820;51.112;13.762;2022-08-14T12:54:13;98853.38;;;25.93;60.39
35704;BME280;21820;51.112;13.762;2022-08-14T12:56:40;98843.34;;;25.53;54.17
35704;BME280;21820;51.112;13.762;2022-08-14T12:59:05;98840.34;;;25.56;54.60
35704;BME280;21820;51.112;13.762;2022-08-14T13:01:34;98843.59;;;25.73;57.25
35704;BME280;21820;51.112;13.762;2022-08-14T13:04:05;98826.19;;;25.72;59.05
35704;BME280;21820;51.112;13.762;2022-08-14T13:06:36;98832.38;;;25.85;57.97
35704;BME280;21820;51.112;13.762;2022-08-14T13:09:04;98831.41;;;25.86;58.62
35704;BME280;21820;51.112;13.762;2022-08-14T13:11:50;98832.66;;;25.90;59.62
35704;BME280;21820;51.112;13.762;2022-08-14T13:14:25;98822.13;;;25.90;59.91
35704;BME280;21820;51.112;13.762;2022-08-14T13:16:56;98814.22;;;25.90;59.22
35704;BME280;21820;51.112;13.762;2022-08-14T13:19:22;98809.13;;;25.89;58.33
35704;BME280;21820;51.112;13.762;2022-08-14T13:21:50;98810.97;;;25.88;58.21
35704;BME280;21820;51.112;13.762;2022-08-14T13:24:20;98806.50;;;25.89;58.31
35704;BME280;21820;51.112;13.762;2022-08-14T13:26:49;98800.44;;;25.88;58.61